Flight Track Log - Related Links

Times and Time Zones

All times are in EDT time to prevent confusion due to time zone crossing. See the FDX120 flight status page for this flight to view local times or setup timezone preferences in your user account.

Time Position Orientation Groundspeed Altitude Reporting Facility
EDT Latitude Longitude Course Direction KTS MPH feet Rate Location/Type
Thu 05:23:36 AM 35.0167 -89.9833 304° West 156 180 1,300  Level KMEM
Thu 05:24:18 AM 34.9833 -89.9833 180° South 166 191 2,500 1,600 Climbing KMEM
Thu 05:25:06 AM 34.9500 -90.0167 219° Southwest 249 287 3,700 2,619 Climbing KMEM
Thu 05:26:24 AM 34.9500 -90.1333 270° West 279 321 8,000 3,227 Climbing KMEM
Thu 05:27:18 AM 34.9833 -90.2000 301° West 284 327 10,800 2,550 Climbing KMEM
Thu 05:27:44 AM 35.0136 -90.2378 314° West 318 366 11,400 1,395 Climbing Memphis Center
Thu 05:28:44 AM 35.0825 -90.3217 315° West 343 395 12,800 1,700 Climbing Memphis Center
Thu 05:29:00 AM 35.3984 -90.6838 304° West  Level FlightAware Approximate
Thu 05:29:44 AM 35.1514 -90.4053 315° West 369 425 14,800  Level Memphis Center
Thu 05:30:44 AM 35.2367 -90.5044 316° Northwest 401 461 17,200 2,200 Climbing Memphis Center
Thu 05:31:44 AM 35.3306 -90.5861 325° Northwest 415 478 19,200 2,050 Climbing Memphis Center
Thu 05:32:44 AM 35.4389 -90.6528 333° Northwest 429 494 21,300 1,950 Climbing Memphis Center
Thu 05:33:44 AM 35.5492 -90.7244 332° Northwest 444 511 23,100 1,750 Climbing Memphis Center
Thu 05:34:44 AM 35.6575 -90.7964 332° Northwest 444 511 24,800 1,650 Climbing Memphis Center
Thu 05:35:44 AM 35.7717 -90.8764 330° Northwest 443 510 26,400 1,500 Climbing Memphis Center
Thu 05:36:44 AM 35.8903 -90.9592 331° Northwest 451 519 27,800 1,500 Climbing Memphis Center
Thu 05:37:44 AM 36.0025 -91.0317 332° Northwest 456 525 29,400 1,433 Climbing Memphis Center
Thu 05:39:44 AM 36.2144 -91.1750 331° Northwest 456 525 32,100 1,400 Climbing Memphis Center
Thu 05:40:44 AM 36.3244 -91.2508 331° Northwest 456 525 33,600 630 Climbing Memphis Center
Thu 05:42:45 AM 36.5383 -91.3906 332° Northwest 442 509 34,000 132 Climbing Kansas City Center
Thu 05:43:46 AM 36.6539 -91.4692 331° Northwest 437 503 34,000  Level Kansas City Center
Thu 05:44:46 AM 36.7625 -91.5428 332° Northwest 441 507 34,000  Level Kansas City Center
Thu 05:45:47 AM 36.8719 -91.6186 331° Northwest 445 512 34,000  Level Kansas City Center
Thu 05:46:47 AM 36.9794 -91.6933 331° Northwest 442 509 34,000  Level Kansas City Center
Thu 05:47:47 AM 37.0900 -91.7683 332° Northwest 448 516 34,000  Level Kansas City Center
Thu 05:48:48 AM 37.1986 -91.8444 331° Northwest 448 516 34,000  Level Kansas City Center
Thu 05:49:48 AM 37.3081 -91.9194 331° Northwest 445 512 34,000  Level Kansas City Center
Thu 05:50:48 AM 37.4183 -91.9964 331° Northwest 450 518 34,000  Level Kansas City Center
Thu 05:57:07 AM 38.1160 -92.4900 331° Northwest 443 510 34,000  Level FlightAware ADS-B
Thu 05:57:47 AM 38.1890 -92.5430 330° Northwest 443 510 34,000  Level FlightAware ADS-B
Thu 05:58:22 AM 38.2460 -92.5840 331° Northwest 443 510 34,000  Level FlightAware ADS-B
Thu 05:59:07 AM 38.3320 -92.6460 331° Northwest 445 512 34,000  Level FlightAware ADS-B
Thu 05:59:52 AM 38.4010 -92.6970 330° Northwest 445 512 34,000  Level FlightAware ADS-B
Thu 06:00:32 AM 38.4620 -92.7420 330° Northwest 445 512 34,000  Level FlightAware ADS-B
Thu 06:01:12 AM 38.5230 -92.7860 331° Northwest 445 512 34,000  Level FlightAware ADS-B
Thu 06:02:02 AM 38.5980 -92.8420 330° Northwest 445 512 34,000  Level FlightAware ADS-B
Thu 06:02:42 AM 38.7130 -92.9220 332° Northwest 443 510 34,000  Level FlightAware ADS-B
Thu 06:03:22 AM 38.7850 -92.9740 331° Northwest 444 511 34,000  Level FlightAware ADS-B
Thu 06:04:07 AM 38.8660 -93.0320 331° Northwest 443 510 34,000  Level FlightAware ADS-B
Thu 06:04:47 AM 38.9370 -93.0850 330° Northwest 442 509 34,000  Level FlightAware ADS-B
Thu 06:05:27 AM 39.0080 -93.1370 330° Northwest 440 506 34,000  Level FlightAware ADS-B
Thu 06:06:12 AM 39.0800 -93.1900 330° Northwest 441 507 34,000  Level FlightAware ADS-B
Thu 06:06:57 AM 39.1680 -93.2550 330° Northwest 438 504 34,000  Level FlightAware ADS-B
Thu 06:07:37 AM 39.2380 -93.3070 330° Northwest 434 499 34,000  Level FlightAware ADS-B
Thu 06:08:17 AM 39.3070 -93.3580 330° Northwest 437 503 34,000  Level FlightAware ADS-B
Thu 06:09:02 AM 39.3850 -93.4160 330° Northwest 439 505 34,000  Level FlightAware ADS-B
Thu 06:09:42 AM 39.4570 -93.4700 330° Northwest 439 505 34,000  Level FlightAware ADS-B
Thu 06:10:22 AM 39.5280 -93.5240 330° Northwest 439 505 34,000  Level FlightAware ADS-B
Thu 06:11:07 AM 39.6060 -93.5820 330° Northwest 441 507 34,000  Level FlightAware ADS-B
Thu 06:11:47 AM 39.6760 -93.6340 330° Northwest 441 507 34,000  Level FlightAware ADS-B
Thu 06:12:27 AM 39.7470 -93.6880 330° Northwest 440 506 34,000  Level FlightAware ADS-B
Thu 06:13:12 AM 39.8280 -93.7480 330° Northwest 441 507 34,000  Level FlightAware ADS-B
Thu 06:13:52 AM 39.8980 -93.8010 330° Northwest 439 505 34,000  Level FlightAware ADS-B
Thu 06:14:37 AM 39.9760 -93.8600 330° Northwest 440 506 34,000  Level FlightAware ADS-B
Thu 06:15:17 AM 40.0460 -93.9140 329° Northwest 437 503 34,000  Level FlightAware ADS-B
Thu 06:16:02 AM 40.1260 -93.9750 330° Northwest 439 505 34,000  Level FlightAware ADS-B
Thu 06:16:52 AM 40.2060 -94.0370 329° Northwest 443 510 34,000  Level FlightAware ADS-B
Thu 06:17:37 AM 40.2920 -94.1020 330° Northwest 440 506 34,000  Level FlightAware ADS-B
Thu 06:18:22 AM 40.3730 -94.1640 330° Northwest 441 507 34,000  Level FlightAware ADS-B
Thu 06:19:02 AM 40.4450 -94.2210 329° Northwest 442 509 34,000  Level FlightAware ADS-B
Thu 06:19:42 AM 40.5140 -94.2730 330° Northwest 446 513 34,000  Level FlightAware ADS-B
Thu 06:20:17 AM 40.5720 -94.3180 329° Northwest 447 514 34,000  Level FlightAware ADS-B
Thu 06:21:22 AM 40.3520 -94.1480 149° Southeast 441 507 34,000  Level FlightAware ADS-B
Thu 06:21:57 AM 40.3760 -94.1670 329° Northwest 442 509 34,000  Level FlightAware ADS-B
Thu 06:22:42 AM 40.4450 -94.2200 330° Northwest 442 509 34,000  Level FlightAware ADS-B
Thu 06:23:42 AM 40.4940 -94.2580 329° Northwest 443 510 34,000  Level FlightAware ADS-B
Thu 06:24:22 AM 40.5550 -94.3030 331° Northwest 443 510 34,000  Level FlightAware ADS-B
Thu 06:25:22 AM 41.1040 -94.7350 329° Northwest 436 502 34,000  Level FlightAware ADS-B
Thu 06:26:02 AM 41.1620 -94.7820 329° Northwest 436 502 34,000  Level FlightAware ADS-B
Thu 06:26:42 AM 41.2210 -94.8290 329° Northwest 436 502 34,000  Level FlightAware ADS-B
Thu 06:27:22 AM 41.2800 -94.8760 329° Northwest 436 502 34,000  Level FlightAware ADS-B
Thu 06:28:07 AM 41.3970 -94.9680 329° Northwest 436 502 34,000  Level FlightAware ADS-B
Thu 06:28:52 AM 41.4680 -95.0270 328° Northwest 439 505 34,000  Level FlightAware ADS-B
Thu 06:29:32 AM 41.5260 -95.0750 328° Northwest 439 505 34,000  Level FlightAware ADS-B
Thu 06:30:12 AM 41.5850 -95.1240 328° Northwest 439 505 34,000  Level FlightAware ADS-B
Thu 06:30:52 AM 41.6430 -95.1730 328° Northwest 439 505 34,000  Level FlightAware ADS-B
Thu 06:31:37 AM 41.7600 -95.2600 331° Northwest 430 495 34,000  Level FlightAware ADS-B
Thu 06:32:22 AM 41.8390 -95.3240 329° Northwest 436 502 34,000  Level FlightAware ADS-B
Thu 06:33:02 AM 41.9030 -95.3770 328° Northwest 437 503 34,000  Level FlightAware ADS-B
Thu 06:33:42 AM 41.9770 -95.4360 329° Northwest 434 499 34,000  Level FlightAware ADS-B
Thu 06:34:27 AM 42.0530 -95.4990 328° Northwest 430 495 34,000  Level FlightAware ADS-B
Thu 06:35:07 AM 42.1230 -95.5550 329° Northwest 432 497 34,000  Level FlightAware ADS-B
Thu 06:35:52 AM 42.1990 -95.6190 328° Northwest 439 505 34,000  Level FlightAware ADS-B
Thu 06:36:32 AM 42.2690 -95.6760 329° Northwest 443 510 34,000  Level FlightAware ADS-B
Thu 06:37:12 AM 42.3390 -95.7340 329° Northwest 442 509 34,000  Level FlightAware ADS-B
Thu 06:37:57 AM 42.4180 -95.7990 329° Northwest 440 506 34,000  Level FlightAware ADS-B
Thu 06:38:37 AM 42.4870 -95.8560 329° Northwest 449 517 34,000  Level FlightAware ADS-B
Thu 06:39:22 AM 42.5660 -95.9220 328° Northwest 449 517 34,000  Level FlightAware ADS-B
Thu 06:40:02 AM 42.6370 -95.9810 329° Northwest 446 513 34,000  Level FlightAware ADS-B
Thu 06:40:42 AM 42.7060 -96.0400 328° Northwest 444 511 34,000  Level FlightAware ADS-B
Thu 06:41:27 AM 42.7850 -96.1060 328° Northwest 447 514 34,000  Level FlightAware ADS-B
Thu 06:42:07 AM 42.8570 -96.1670 328° Northwest 449 517 34,000  Level FlightAware ADS-B
Thu 06:42:52 AM 42.9340 -96.2330 328° Northwest 448 516 34,000  Level FlightAware ADS-B
Thu 06:43:32 AM 43.0070 -96.2940 329° Northwest 449 517 34,000  Level FlightAware ADS-B
Thu 06:44:12 AM 43.0760 -96.3530 328° Northwest 447 514 34,000  Level FlightAware ADS-B
Thu 06:44:52 AM 43.1480 -96.4140 328° Northwest 447 514 34,000  Level FlightAware ADS-B
Thu 06:45:37 AM 43.2270 -96.4820 328° Northwest 448 516 34,000  Level FlightAware ADS-B
Thu 06:46:17 AM 43.3000 -96.5440 328° Northwest 451 519 34,000  Level FlightAware ADS-B
Thu 06:47:02 AM 43.3760 -96.6090 328° Northwest 451 519 34,000  Level FlightAware ADS-B
Thu 06:47:42 AM 43.4480 -96.6720 328° Northwest 451 519 34,000  Level FlightAware ADS-B
Thu 06:48:22 AM 43.5180 -96.7320 328° Northwest 450 518 34,000  Level FlightAware ADS-B
Thu 06:49:07 AM 43.5990 -96.8020 328° Northwest 450 518 34,000  Level FlightAware ADS-B
Thu 06:49:47 AM 43.6690 -96.8630 328° Northwest 449 517 34,000  Level FlightAware ADS-B
Thu 06:50:32 AM 43.7470 -96.9310 328° Northwest 449 517 34,000  Level FlightAware ADS-B
Thu 06:51:12 AM 43.8180 -96.9940 327° Northwest 453 521 34,000  Level FlightAware ADS-B
Thu 06:51:57 AM 43.8980 -97.0640 328° Northwest 452 520 34,000  Level FlightAware ADS-B
Thu 06:52:37 AM 43.9700 -97.1270 328° Northwest 443 510 34,000  Level FlightAware ADS-B
Thu 06:53:17 AM 44.0390 -97.1880 328° Northwest 441 507 34,000  Level FlightAware ADS-B
Thu 06:54:02 AM 44.1140 -97.2540 328° Northwest 443 510 34,000  Level FlightAware ADS-B
Thu 06:54:42 AM 44.1840 -97.3170 327° Northwest 444 511 34,000  Level FlightAware ADS-B
Thu 06:55:27 AM 44.2620 -97.3870 327° Northwest 443 510 34,000  Level FlightAware ADS-B
Thu 06:56:07 AM 44.3300 -97.4470 328° Northwest 443 510 34,000  Level FlightAware ADS-B
Thu 06:56:47 AM 44.3950 -97.5070 327° Northwest 443 510 34,000  Level FlightAware ADS-B
Thu 06:57:27 AM 44.4540 -97.5600 327° Northwest 443 510 34,000  Level FlightAware ADS-B
Thu 06:58:27 AM 44.5680 -97.6630 327° Northwest 443 510 34,000  Level FlightAware ADS-B
Thu 06:59:02 AM 44.6320 -97.7190 328° Northwest 442 509 34,000  Level FlightAware ADS-B
Thu 06:59:47 AM 44.6990 -97.7800 327° Northwest 442 509 34,000  Level FlightAware ADS-B
Thu 07:00:27 AM 44.7790 -97.8540 327° Northwest 444 511 34,000  Level FlightAware ADS-B
Thu 07:01:12 AM 44.8460 -97.9170 326° Northwest 444 511 34,000  Level FlightAware ADS-B
Thu 07:01:52 AM 44.9040 -97.9720 326° Northwest 444 511 34,000  Level FlightAware ADS-B
Thu 07:02:32 AM 44.9620 -98.0280 326° Northwest 444 511 34,000  Level FlightAware ADS-B
Thu 07:03:22 AM 45.0340 -98.0970 326° Northwest 444 511 34,000  Level FlightAware ADS-B
Thu 07:03:57 AM 45.1310 -98.1790 329° Northwest 439 505 34,000  Level FlightAware ADS-B
Thu 07:04:37 AM 45.1890 -98.2340 326° Northwest 439 505 34,000  Level FlightAware ADS-B
Thu 07:05:27 AM 45.2600 -98.3020 326° Northwest 439 505 34,000  Level FlightAware ADS-B
Thu 07:06:07 AM 45.3180 -98.3570 326° Northwest 439 505 34,000  Level FlightAware ADS-B
Thu 07:06:47 AM 45.3750 -98.4120 326° Northwest 439 505 34,000  Level FlightAware ADS-B
Thu 07:07:37 AM 45.4460 -98.4810 326° Northwest 439 505 34,000  Level FlightAware ADS-B
Thu 07:08:17 AM 45.5040 -98.5360 326° Northwest 439 505 34,000  Level FlightAware ADS-B
Thu 07:08:57 AM 45.5610 -98.5910 326° Northwest 439 505 34,000  Level FlightAware ADS-B
Thu 07:09:37 AM 45.6180 -98.6460 326° Northwest 439 505 34,000  Level FlightAware ADS-B
Thu 07:10:17 AM 45.6750 -98.7020 326° Northwest 439 505 34,000  Level FlightAware ADS-B
Thu 07:11:07 AM 45.7470 -98.7710 326° Northwest 439 505 34,000  Level FlightAware ADS-B
Thu 07:11:47 AM 45.8040 -98.8260 326° Northwest 439 505 34,000  Level FlightAware ADS-B
Thu 07:12:27 AM 45.8610 -98.8820 326° Northwest 439 505 34,000  Level FlightAware ADS-B
Thu 07:13:07 AM 45.9190 -98.9370 327° Northwest 439 505 34,000  Level FlightAware ADS-B
Thu 07:13:26 AM 46.1036 -99.0978 327° Northwest 438 504 34,000  Level Minneapolis Center
Thu 07:14:27 AM 46.2039 -99.1953 326° Northwest 437 503 34,000  Level Minneapolis Center
Thu 07:15:28 AM 46.3078 -99.2950 326° Northwest 434 499 34,000  Level Minneapolis Center
Thu 07:16:28 AM 46.4067 -99.3922 326° Northwest 432 497 34,000  Level Minneapolis Center
Thu 07:17:29 AM 46.5067 -99.4903 326° Northwest 434 499 34,000  Level Minneapolis Center
Thu 07:18:30 AM 46.6033 -99.5839 326° Northwest 434 499 34,000  Level Minneapolis Center
Thu 07:19:31 AM 46.7014 -99.6803 326° Northwest 429 494 34,000  Level Minneapolis Center
Thu 07:20:31 AM 46.8033 -99.7825 326° Northwest 432 497 34,000  Level Minneapolis Center
Thu 07:21:32 AM 46.9019 -99.8814 326° Northwest 436 502 34,000  Level Minneapolis Center
Thu 07:22:33 AM 47.0042 -99.9831 326° Northwest 440 506 34,000  Level Minneapolis Center
Thu 07:23:34 AM 47.1056 -100.0839 326° Northwest 441 507 34,000 -49 Level Minneapolis Center
Thu 07:24:35 AM 47.2075 -100.1875 325° Northwest 442 509 33,900  Descending Minneapolis Center
Thu 07:30:27 AM 47.8030 -100.8050 325° Northwest 438 504 34,000 15 Climbing FlightAware ADS-B
Thu 07:31:07 AM 47.8690 -100.8730 325° Northwest 439 505 34,000  Level FlightAware ADS-B
Thu 07:31:52 AM 47.9350 -100.9440 324° Northwest 439 505 34,000  Level FlightAware ADS-B
Thu 07:32:32 AM 47.9910 -101.0050 324° Northwest 439 505 34,000  Level FlightAware ADS-B
Thu 07:33:07 AM 48.0700 -101.0850 326° Northwest 439 505 34,000  Level FlightAware ADS-B
Thu 07:33:52 AM 48.1340 -101.1550 324° Northwest 439 505 34,000  Level FlightAware ADS-B
Thu 07:34:32 AM 48.1900 -101.2150 324° Northwest 439 505 34,000  Level FlightAware ADS-B
Thu 07:35:22 AM 48.2600 -101.2920 324° Northwest 439 505 34,000  Level FlightAware ADS-B
Thu 07:36:02 AM 48.3160 -101.3530 324° Northwest 439 505 34,000  Level FlightAware ADS-B
Thu 07:36:42 AM 48.4110 -101.4970 315° West 447 514 34,000  Level FlightAware ADS-B
Thu 07:37:22 AM 48.4650 -101.5780 315° West 446 513 34,000  Level FlightAware ADS-B
Thu 07:38:02 AM 48.5160 -101.6510 317° Northwest 446 513 34,000  Level FlightAware ADS-B
Thu 07:38:52 AM 48.5790 -101.7430 316° Northwest 446 513 34,000  Level FlightAware ADS-B
Thu 07:39:32 AM 48.6290 -101.8170 316° Northwest 446 513 34,000  Level FlightAware ADS-B
Thu 07:40:12 AM 48.7250 -101.9430 319° Northwest 447 514 34,000  Level FlightAware ADS-B
Thu 07:40:47 AM 48.7770 -102.0170 317° Northwest 444 511 34,000  Level FlightAware ADS-B
Thu 07:41:32 AM 48.8440 -102.1160 316° Northwest 443 510 34,000  Level FlightAware ADS-B
Thu 07:42:17 AM 48.9140 -102.2150 317° Northwest 444 511 34,000  Level FlightAware ADS-B
Thu 07:42:57 AM 48.9740 -102.3030 316° Northwest 444 511 34,000  Level FlightAware ADS-B
Thu 07:43:47 AM 49.0480 -102.4090 317° Northwest 444 511 34,000  Level FlightAware ADS-B
Thu 07:44:27 AM 49.1080 -102.4980 316° Northwest 443 510 34,000  Level FlightAware ADS-B
Thu 07:45:07 AM 49.1600 -102.5740 316° Northwest 443 510 34,000  Level FlightAware ADS-B
Thu 07:45:52 AM 49.2330 -102.6810 316° Northwest 440 506 34,000  Level FlightAware ADS-B
Thu 07:46:32 AM 49.2910 -102.7650 317° Northwest 439 505 34,000  Level FlightAware ADS-B
Thu 07:47:27 AM 49.3630 -102.8760 315° West 439 505 34,000  Level FlightAware ADS-B
Thu 07:48:12 AM 49.4310 -102.9760 316° Northwest 441 507 34,000  Level FlightAware ADS-B
Thu 07:48:52 AM 49.4800 -103.0520 315° West 441 507 34,000  Level FlightAware ADS-B
Thu 07:49:32 AM 49.5290 -103.1270 315° West 441 507 34,000  Level FlightAware ADS-B
Thu 07:50:12 AM 49.5780 -103.2030 315° West 441 507 34,000  Level FlightAware ADS-B
Thu 07:50:52 AM 49.6270 -103.2790 315° West 441 507 34,000  Level FlightAware ADS-B
Thu 07:51:32 AM 49.6760 -103.3540 315° West 441 507 34,000  Level FlightAware ADS-B
Thu 07:52:17 AM 49.7880 -103.5130 318° Northwest 441 507 34,000  Level FlightAware ADS-B
Thu 07:52:57 AM 49.8370 -103.5890 315° West 441 507 34,000  Level FlightAware ADS-B
Thu 07:53:42 AM 49.9090 -103.6970 316° Northwest 440 506 34,000  Level FlightAware ADS-B
Thu 07:54:22 AM 49.9650 -103.7830 315° West 440 506 34,000  Level FlightAware ADS-B
Thu 07:55:17 AM 49.9200 -103.7120 135° Southeast 440 506 34,000  Level FlightAware ADS-B
Thu 07:56:02 AM 49.9790 -103.8030 315° West 440 506 34,000  Level FlightAware ADS-B
Thu 07:56:47 AM 50.0470 -103.9100 315° West 437 503 34,000  Level FlightAware ADS-B
Thu 07:57:42 AM 50.1250 -104.0320 315° West 435 501 34,000  Level FlightAware ADS-B
Thu 07:58:27 AM 50.1870 -104.1270 316° Northwest 434 499 34,000  Level FlightAware ADS-B
Thu 07:59:02 AM 50.2310 -104.1960 315° West 434 499 34,000  Level FlightAware ADS-B
Thu 07:59:47 AM 50.3690 -104.5120 304° West 433 498 34,000  Level FlightAware ADS-B
Thu 08:00:12 AM 50.3230 -104.3920 121° Southeast 433 498 34,000  Level FlightAware ADS-B
Thu 08:01:02 AM 50.4640 -104.7580 301° West 432 497 34,000  Level FlightAware ADS-B
Thu 08:01:47 AM 50.5100 -104.8790 301° West 431 496 34,000  Level FlightAware ADS-B
Thu 08:02:27 AM 50.5510 -104.9840 302° West 431 496 34,000  Level FlightAware ADS-B
Thu 08:03:02 AM 50.5900 -105.0860 301° West 431 496 34,000  Level FlightAware ADS-B
Thu 08:03:47 AM 50.6340 -105.2040 300° West 430 495 34,000  Level FlightAware ADS-B
Thu 08:04:27 AM 50.6760 -105.3120 302° West 430 495 34,000  Level FlightAware ADS-B
Thu 08:05:07 AM 50.6270 -105.1830 121° Southeast 430 495 34,000  Level FlightAware ADS-B
Thu 08:05:47 AM 50.6650 -105.2850 300° West 430 495 34,000  Level FlightAware ADS-B
Thu 08:06:22 AM 50.7130 -105.4120 301° West 430 495 34,000  Level FlightAware ADS-B
Thu 08:07:27 AM 50.7910 -105.6220 300° West 427 491 34,000  Level FlightAware ADS-B
Thu 08:08:07 AM 50.8280 -105.7210 301° West 426 490 34,000  Level FlightAware ADS-B
Thu 08:08:47 AM 50.8640 -105.8180 300° West 427 491 34,000  Level FlightAware ADS-B
Thu 08:09:27 AM 50.9000 -105.9150 301° West 427 491 34,000  Level FlightAware ADS-B
Thu 08:10:07 AM 50.9560 -106.0690 300° West 427 491 34,000  Level FlightAware ADS-B
Thu 08:10:57 AM 50.9980 -106.1830 300° West 427 491 34,000  Level FlightAware ADS-B
Thu 08:11:37 AM 51.0440 -106.3110 300° West 426 490 34,000  Level FlightAware ADS-B
Thu 08:12:17 AM 51.0780 -106.4030 300° West 426 490 34,000  Level FlightAware ADS-B
Thu 08:13:02 AM 51.1270 -106.5410 300° West 425 489 34,000  Level FlightAware ADS-B
Thu 08:13:47 AM 51.1810 -106.6900 300° West 424 488 34,000  Level FlightAware ADS-B
Thu 08:14:27 AM 51.2160 -106.7880 300° West 424 488 34,000  Level FlightAware ADS-B
Thu 08:15:12 AM 51.2650 -106.9270 299° West 422 486 34,000  Level FlightAware ADS-B
Thu 08:15:52 AM 51.2900 -106.9970 300° West 423 487 34,000  Level FlightAware ADS-B
Thu 08:16:47 AM 51.3320 -107.1180 299° West 422 486 34,000  Level FlightAware ADS-B
Thu 08:17:27 AM 51.3640 -107.2110 299° West 422 486 34,000  Level FlightAware ADS-B
Thu 08:18:07 AM 51.3960 -107.3040 299° West 422 486 34,000  Level FlightAware ADS-B
Thu 08:18:47 AM 51.4280 -107.3970 299° West 422 486 34,000  Level FlightAware ADS-B
Thu 08:19:37 AM 51.4680 -107.5140 299° West 422 486 34,000  Level FlightAware ADS-B
Thu 08:20:17 AM 51.5000 -107.6070 299° West 422 486 34,000  Level FlightAware ADS-B
Thu 08:20:57 AM 51.5330 -107.7000 300° West 422 486 34,000  Level FlightAware ADS-B
Thu 08:21:37 AM 51.5650 -107.7940 299° West 422 486 34,000  Level FlightAware ADS-B
Thu 08:22:17 AM 51.5970 -107.8870 299° West 422 486 34,000  Level FlightAware ADS-B
Thu 08:23:07 AM 51.6370 -108.0040 299° West 422 486 34,000  Level FlightAware ADS-B
Thu 08:23:47 AM 51.6690 -108.0980 299° West 422 486 34,000  Level FlightAware ADS-B
Thu 08:24:27 AM 51.7020 -108.1910 300° West 422 486 34,000  Level FlightAware ADS-B
Thu 08:25:07 AM 51.7340 -108.2850 299° West 422 486 34,000  Level FlightAware ADS-B
Thu 08:25:47 AM 51.7660 -108.3790 299° West 422 486 34,000  Level FlightAware ADS-B
Thu 08:29:42 AM 52.1160 -109.4570 298° West 409 471 34,000  Level FlightAware ADS-B
Thu 08:30:17 AM 52.1430 -109.5490 296° West 409 471 34,000  Level FlightAware ADS-B
Thu 08:30:57 AM 52.1710 -109.6430 296° West 409 471 34,000  Level FlightAware ADS-B
Thu 08:31:47 AM 52.2060 -109.7610 296° West 409 471 34,000  Level FlightAware ADS-B
Thu 08:32:27 AM 52.2350 -109.8550 297° West 409 471 34,000  Level FlightAware ADS-B
Thu 08:33:17 AM 52.2700 -109.9730 296° West 409 471 34,000  Level FlightAware ADS-B
Thu 08:34:07 AM 52.3050 -110.0910 296° West 409 471 34,000  Level FlightAware ADS-B
Thu 08:34:47 AM 52.3330 -110.1860 296° West 409 471 34,000  Level FlightAware ADS-B
Thu 08:35:27 AM 52.3620 -110.2810 297° West 409 471 34,000  Level FlightAware ADS-B
Thu 08:36:07 AM 52.3900 -110.3750 296° West 409 471 34,000  Level FlightAware ADS-B
Thu 08:36:57 AM 52.4250 -110.4940 296° West 409 471 34,000  Level FlightAware ADS-B
Thu 08:37:37 AM 52.4530 -110.5890 296° West 409 471 34,000  Level FlightAware ADS-B
Thu 08:38:17 AM 52.5610 -110.8920 300° West 412 474 34,000  Level FlightAware ADS-B
Thu 08:39:02 AM 52.5980 -111.0160 296° West 412 474 34,000  Level FlightAware ADS-B
Thu 08:39:42 AM 52.6320 -111.1280 297° West 412 474 34,000  Level FlightAware ADS-B
Thu 08:40:27 AM 52.6700 -111.2580 296° West 414 476 34,000  Level FlightAware ADS-B
Thu 08:41:07 AM 52.7020 -111.3660 296° West 415 478 34,000  Level FlightAware ADS-B
Thu 08:41:47 AM 52.7380 -111.4890 296° West 416 479 34,000  Level FlightAware ADS-B
Thu 08:42:32 AM 52.7740 -111.6110 296° West 415 478 34,000  Level FlightAware ADS-B
Thu 08:43:12 AM 52.8090 -111.7310 296° West 413 475 34,000  Level FlightAware ADS-B
Thu 08:43:57 AM 52.8450 -111.8560 296° West 412 474 34,000  Level FlightAware ADS-B
Thu 08:44:37 AM 52.8780 -111.9700 296° West 413 475 34,000 -1,059 Level FlightAware ADS-B
Thu 08:45:22 AM 52.9150 -112.1000 295° West 406 467 32,500 -2,612 Descending FlightAware ADS-B
Thu 08:46:02 AM 52.9470 -112.2120 295° West 413 475 30,300 -3,600 Descending FlightAware ADS-B
Thu 08:46:37 AM 52.9770 -112.3150 296° West 420 483 28,000 -1,725 Descending FlightAware ADS-B
Thu 08:47:22 AM 53.0100 -112.4320 295° West 420 483 28,000 -2,942 Level FlightAware ADS-B
Thu 08:48:07 AM 53.0390 -112.5750 289° West 23,400 -4,145 Descending FlightAware ADS-B
Thu 08:49:12 AM 53.0630 -112.7640 282° West 404 465 20,400 -1,636 Descending FlightAware ADS-B
Thu 08:49:57 AM 53.0810 -112.8850 284° West 404 465 20,400 -3,075 Level FlightAware ADS-B
Thu 08:50:32 AM 53.1110 -112.9940 295° West 369 425 16,300 -3,075 Descending FlightAware ADS-B
Thu 08:51:17 AM 53.1520 -113.0850 307° West 369 425 16,300  Level FlightAware ADS-B
Thu 08:52:07 AM 53.1960 -113.1820 307° West 369 425 16,300  Level FlightAware ADS-B
Thu 08:52:47 AM 53.2310 -113.2590 307° West 369 425 16,300  Level FlightAware ADS-B
Thu 08:53:27 AM 53.2660 -113.3370 307° West 369 425 16,300  Level FlightAware ADS-B
Thu 08:54:07 AM 53.3010 -113.4140 307° West 369 425 16,300 -6,000 Level FlightAware ADS-B
Thu 08:54:47 AM 53.3500 -113.5167 307° West 280 322 8,300 -5,280 Descending Edmonton Center
Thu 08:55:47 AM 53.4167 -113.5833 329° Northwest 270 311 7,500 -900 Descending Edmonton Center
Thu 08:56:47 AM 53.4333 -113.7000 284° West 250 288 6,500 -1,250 Descending Edmonton Center
Thu 08:57:47 AM 53.4167 -113.7833 251° West 200 230 5,000 -1,300 Descending Edmonton Center
Thu 08:58:47 AM 53.3667 -113.7667 169° South 190 219 3,900 -650 Descending Edmonton Center
Thu 08:59:47 AM 53.3333 -113.7000 130° Southeast 180 207 3,700 -400 Descending Edmonton Center
Thu 09:00:47 AM 53.3000 -113.6667 149° Southeast 150 173 3,100 -650 Descending Edmonton Center
Thu 09:01:47 AM 53.2833 -113.6000 113° Southeast 130 150 2,400 -350 Descending Edmonton Center
Thu 09:02:47 AM 53.2667 -113.6000 180° South 20 23 2,400  Level Edmonton Center
Thu 09:03:47 AM 53.2833 -113.6000 360° North 30 35 2,400  Level Edmonton Center

Login

Don't have an account? Register now (free) for customized features, flight alerts, and more!